Time;durP1;ratioP1;P1;durP2;ratioP2;P2;SDS_P1;SDS_P2;PMS_P1;PMS_P2;Temp;Humidity;BMP_temperature;BMP_pressure;BME280_temperature;BME280_humidity;BME280_pressure;Samples;Min_cycle;Max_cycle;Signal;HPM_P1;HPM_P2
2021/03/19 00:01:21;;;;;;;24.58;12.40;;;;;;;-2.27;87.55;96687.28;5015918;28;20539;-62
2021/03/19 00:03:47;;;;;;;20.05;11.27;;;;;;;-2.31;87.28;96697.78;4989163;28;20676;-61
2021/03/19 00:06:12;;;;;;;23.15;11.35;;;;;;;-2.42;86.72;96688.25;5023077;28;20041;-63
2021/03/19 00:08:38;;;;;;;24.92;11.63;;;;;;;-2.52;86.90;96693.72;5024030;28;20513;-63
2021/03/19 00:11:04;;;;;;;23.65;12.85;;;;;;;-2.66;87.08;96687.44;5004882;28;20045;-60
2021/03/19 00:13:29;;;;;;;25.42;12.45;;;;;;;-2.72;88.12;96695.50;5022274;28;20133;-62
2021/03/19 00:15:55;;;;;;;22.25;12.30;;;;;;;-2.76;88.93;96685.63;4996438;28;20046;-61
2021/03/19 00:18:21;;;;;;;30.27;14.10;;;;;;;-2.79;88.61;96691.53;5015766;28;20100;-63
2021/03/19 00:20:47;;;;;;;26.05;11.57;;;;;;;-2.85;87.84;96688.09;5012790;28;20046;-61
2021/03/19 00:23:13;;;;;;;24.38;12.25;;;;;;;-2.90;88.84;96682.75;5016519;28;20381;-63
2021/03/19 00:25:40;;;;;;;25.23;11.98;;;;;;;-2.94;89.98;96684.41;5021358;28;20049;-63
2021/03/19 00:28:06;;;;;;;24.77;13.55;;;;;;;-2.95;90.07;96685.50;5015928;28;20045;-62
2021/03/19 00:30:33;;;;;;;24.13;12.60;;;;;;;-2.90;90.09;96688.13;5021457;28;20566;-62
2021/03/19 00:33:00;;;;;;;21.70;10.90;;;;;;;-2.93;90.05;96684.13;5017211;28;20037;-63
2021/03/19 00:35:25;;;;;;;31.52;12.00;;;;;;;-2.98;90.62;96686.84;5004583;28;20092;-62
2021/03/19 00:37:51;;;;;;;21.70;11.85;;;;;;;-2.93;90.87;96684.13;5001770;28;20037;-62
2021/03/19 00:40:17;;;;;;;24.40;12.60;;;;;;;-2.94;90.66;96685.22;4996135;28;20530;-66
2021/03/19 00:42:43;;;;;;;21.95;11.32;;;;;;;-2.91;91.00;96684.66;4990416;28;20450;-61
2021/03/19 00:45:11;;;;;;;24.48;12.70;;;;;;;-2.69;90.66;96678.03;5022677;28;20041;-62
2021/03/19 00:47:38;;;;;;;21.40;11.23;;;;;;;-2.71;89.86;96669.50;5046313;28;20041;-60
2021/03/19 00:50:13;;;;;;;24.25;11.85;;;;;;;-2.80;90.88;96676.53;5017170;28;20495;-61
2021/03/19 00:52:39;;;;;;;24.92;10.98;;;;;;;-2.92;91.47;96672.34;5012699;28;20093;-63
2021/03/19 00:55:11;;;;;;;31.92;14.52;;;;;;;-3.00;92.38;96682.88;5018754;28;20042;-61
2021/03/19 00:57:36;;;;;;;25.60;11.18;;;;;;;-3.05;92.89;96667.63;5011528;28;20038;-62
2021/03/19 01:00:07;;;;;;;28.90;12.18;;;;;;;-2.97;93.02;96677.75;4987371;28;20053;-61
2021/03/19 01:02:32;;;;;;;26.98;11.23;;;;;;;-2.94;93.54;96671.00;5015667;28;20056;-64
2021/03/19 01:04:58;;;;;;;26.98;11.80;;;;;;;-2.90;93.37;96659.47;4999710;28;20041;-63
2021/03/19 01:07:23;;;;;;;31.30;14.30;;;;;;;-2.86;93.07;96664.25;5016759;28;20076;-61
2021/03/19 01:09:49;;;;;;;29.52;13.82;;;;;;;-2.78;92.59;96661.75;5016158;28;20045;-60
2021/03/19 01:12:14;;;;;;;29.13;13.43;;;;;;;-2.81;92.86;96654.31;4999910;28;20038;-61
2021/03/19 01:14:40;;;;;;;33.38;14.75;;;;;;;-2.81;92.71;96659.66;5008635;28;20056;-61
2021/03/19 01:17:05;;;;;;;31.60;13.45;;;;;;;-2.85;92.97;96663.97;5012796;28;20451;-61
2021/03/19 01:19:31;;;;;;;26.42;12.52;;;;;;;-2.84;93.27;96654.84;5000243;28;20112;-64
2021/03/19 01:21:56;;;;;;;26.00;12.77;;;;;;;-2.82;92.78;96651.91;5028008;28;20072;-60
2021/03/19 01:24:21;;;;;;;24.58;12.90;;;;;;;-2.76;93.01;96650.75;4990386;28;20790;-64
2021/03/19 01:26:47;;;;;;;23.50;11.70;;;;;;;-2.72;93.13;96647.25;5014660;28;20045;-61
2021/03/19 01:29:12;;;;;;;33.88;14.63;;;;;;;-2.75;92.89;96653.16;5010098;28;20034;-61
2021/03/19 01:31:38;;;;;;;26.40;12.27;;;;;;;-2.73;93.01;96644.84;5007931;28;20398;-63
2021/03/19 01:34:03;;;;;;;31.20;13.27;;;;;;;-2.75;92.99;96645.13;5018774;28;20041;-59
2021/03/19 01:36:28;;;;;;;29.25;13.25;;;;;;;-2.77;93.13;96639.25;5022269;28;20494;-60
2021/03/19 01:38:55;;;;;;;35.45;15.35;;;;;;;-2.81;93.19;96640.91;5023800;28;20144;-61
2021/03/19 01:41:21;;;;;;;28.35;13.38;;;;;;;-2.81;93.48;96642.75;5001520;28;20140;-59
2021/03/19 01:44:01;;;;;;;29.98;13.05;;;;;;;-2.83;93.26;96636.88;5023836;28;20573;-61
2021/03/19 01:47:04;;;;;;;33.15;14.35;;;;;;;-2.79;93.19;96633.38;4986366;28;20119;-61
2021/03/19 01:50:07;;;;;;;31.00;15.57;;;;;;;-2.79;93.21;96636.06;5010430;28;20034;-61
2021/03/19 01:53:10;;;;;;;28.60;12.95;;;;;;;-2.88;93.82;96635.06;5008465;28;20170;-61
2021/03/19 01:56:14;;;;;;;29.90;14.50;;;;;;;-2.91;93.93;96632.94;5002625;28;20041;-62
2021/03/19 01:59:17;;;;;;;28.88;13.90;;;;;;;-2.80;93.62;96625.63;5004247;28;20443;-62
2021/03/19 02:02:20;;;;;;;31.45;13.85;;;;;;;-2.73;93.48;96626.09;5011415;28;20066;-62
2021/03/19 02:05:23;;;;;;;34.42;14.98;;;;;;;-2.78;92.73;96628.81;5007127;28;20030;-61
2021/03/19 02:08:25;;;;;;;29.25;13.50;;;;;;;-2.81;93.42;96622.13;5009030;28;20045;-62
2021/03/19 02:11:29;;;;;;;33.50;13.88;;;;;;;-2.82;93.27;96615.16;5023343;28;20556;-62
2021/03/19 02:14:31;;;;;;;29.88;13.82;;;;;;;-2.88;93.28;96619.00;5021244;28;20038;-61
2021/03/19 02:17:34;;;;;;;27.95;13.13;;;;;;;-2.90;92.67;96616.59;5022804;28;20141;-61
2021/03/19 02:20:54;;;;;;;27.85;12.30;;;;;;;-2.86;93.26;96611.47;5012729;28;20046;-62
2021/03/19 02:23:56;;;;;;;28.50;13.20;;;;;;;-2.76;93.42;96611.34;4936256;28;20133;-61
2021/03/19 02:26:59;;;;;;;25.70;12.25;;;;;;;-2.72;93.30;96604.34;5006364;28;20596;-61
2021/03/19 02:30:02;;;;;;;24.45;11.45;;;;;;;-2.69;93.00;96605.66;5009527;28;20152;-61
2021/03/19 02:32:29;;;;;;;23.45;11.75;;;;;;;-2.67;92.82;96605.38;5006355;28;20048;-61
2021/03/19 02:35:00;;;;;;;25.25;13.20;;;;;;;-2.70;92.55;96607.53;4991787;28;20041;-61
2021/03/19 02:37:28;;;;;;;22.92;11.10;;;;;;;-2.72;92.24;96606.22;5012860;28;20072;-62
2021/03/19 02:39:54;;;;;;;28.40;13.07;;;;;;;-2.73;92.51;96596.59;5020046;28;20045;-62
2021/03/19 02:42:24;;;;;;;25.10;10.35;;;;;;;-2.63;92.48;96593.81;5008365;28;20060;-62
2021/03/19 02:44:50;;;;;;;21.52;10.68;;;;;;;-2.67;91.59;96595.44;5007500;28;20050;-62
2021/03/19 02:47:16;;;;;;;21.88;10.90;;;;;;;-2.74;91.63;96592.31;5003333;28;20112;-61
2021/03/19 02:49:42;;;;;;;23.80;11.48;;;;;;;-2.82;90.96;96592.94;5002909;28;20137;-63
2021/03/19 02:52:08;;;;;;;24.13;12.70;;;;;;;-2.89;91.05;96586.00;4997513;28;20124;-61
2021/03/19 02:54:34;;;;;;;26.63;12.02;;;;;;;-2.94;91.09;96585.25;5002065;28;20402;-61
2021/03/19 02:56:59;;;;;;;23.45;10.60;;;;;;;-2.94;90.84;96580.69;5002562;28;20126;-64
2021/03/19 02:59:24;;;;;;;24.08;12.07;;;;;;;-2.94;90.95;96585.25;5003350;28;20479;-60
2021/03/19 03:01:50;;;;;;;23.83;11.00;;;;;;;-2.97;91.15;96581.28;5025379;28;20109;-62
2021/03/19 03:04:16;;;;;;;25.00;11.45;;;;;;;-2.96;91.01;96577.50;5017706;28;20038;-61
2021/03/19 03:06:46;;;;;;;21.38;11.63;;;;;;;-3.02;91.38;96570.59;5023823;28;20110;-62
2021/03/19 03:09:15;;;;;;;23.85;11.57;;;;;;;-3.10;91.05;96566.66;5021678;28;20038;-61
2021/03/19 03:11:41;;;;;;;22.92;11.50;;;;;;;-2.98;91.10;96570.84;5022471;28;20442;-60
2021/03/19 03:14:10;;;;;;;22.70;10.32;;;;;;;-3.01;90.90;96571.38;5007706;28;20033;-61
2021/03/19 03:16:37;;;;;;;24.02;11.30;;;;;;;-3.05;90.71;96570.34;5000751;28;20041;-61
2021/03/19 03:19:04;;;;;;;19.33;11.90;;;;;;;-2.97;90.54;96564.38;5019748;28;20033;-61
2021/03/19 03:21:29;;;;;;;24.05;10.40;;;;;;;-3.15;90.07;96572.06;4996737;28;20193;-59
2021/03/19 03:23:55;;;;;;;19.35;11.30;;;;;;;-3.30;90.46;96561.44;5021415;28;20523;-59
2021/03/19 03:26:20;;;;;;;22.50;11.48;;;;;;;-3.44;90.33;96563.16;5021020;28;20068;-60
2021/03/19 03:28:46;;;;;;;26.42;12.02;;;;;;;-3.52;91.28;96564.56;5025446;28;20096;-60
2021/03/19 03:31:11;;;;;;;22.20;11.95;;;;;;;-3.54;91.06;96561.38;5009382;28;20073;-60
2021/03/19 03:33:37;;;;;;;23.75;10.90;;;;;;;-3.60;91.33;96560.63;5020227;28;20042;-60
2021/03/19 03:36:03;;;;;;;27.42;12.38;;;;;;;-3.67;91.80;96557.47;5005955;28;20046;-64
2021/03/19 03:38:29;;;;;;;25.13;11.98;;;;;;;-3.76;91.40;96567.13;5015294;28;20030;-59
2021/03/19 03:40:59;;;;;;;27.23;12.60;;;;;;;-3.85;91.63;96566.94;4994882;28;20399;-58
2021/03/19 03:43:25;;;;;;;23.48;11.95;;;;;;;-3.87;91.84;96563.72;5004028;28;20041;-59
2021/03/19 03:45:51;;;;;;;23.98;12.25;;;;;;;-3.90;91.82;96572.31;5022072;28;20048;-65
2021/03/19 03:48:19;;;;;;;25.40;12.70;;;;;;;-3.90;92.08;96575.78;5016999;28;20049;-62
2021/03/19 03:50:45;;;;;;;23.23;10.52;;;;;;;-3.91;92.29;96573.38;5012756;28;20060;-62
2021/03/19 03:53:13;;;;;;;24.15;12.13;;;;;;;-3.86;92.83;96576.03;5002876;28;20050;-61
2021/03/19 03:55:39;;;;;;;28.98;13.02;;;;;;;-3.87;93.30;96569.06;5012670;28;20041;-61
2021/03/19 03:58:05;;;;;;;26.17;12.82;;;;;;;-3.90;93.32;96575.78;5008185;28;20129;-61
2021/03/19 04:00:31;;;;;;;28.85;13.25;;;;;;;-3.83;93.53;96567.47;5011983;28;20119;-62
2021/03/19 04:02:59;;;;;;;29.08;13.48;;;;;;;-3.82;93.20;96573.59;4999913;28;20038;-60
2021/03/19 04:05:29;;;;;;;27.30;14.13;;;;;;;-3.80;93.51;96571.44;5003674;28;20049;-61
2021/03/19 04:07:54;;;;;;;;;;;;;;;-3.83;93.16;96580.84;5010647;28;20593;-59
2021/03/19 04:10:20;;;;;;;24.83;12.73;;;;;;;-3.78;92.88;96578.13;5009229;28;19948;-61
2021/03/19 04:12:46;;;;;;;31.13;13.77;;;;;;;-3.62;92.52;96570.78;5016518;28;20037;-60
2021/03/19 04:15:14;;;;;;;28.50;13.82;;;;;;;-3.65;92.11;96568.69;5018588;28;20642;-60
2021/03/19 04:17:42;;;;;;;29.92;14.30;;;;;;;-3.61;92.13;96566.25;5030152;28;20398;-60
2021/03/19 04:20:08;;;;;;;28.58;13.93;;;;;;;-3.55;91.68;96565.13;5028591;28;20053;-59
2021/03/19 04:22:34;;;;;;;27.23;13.32;;;;;;;-3.69;92.02;96560.41;5001255;28;20049;-61
2021/03/19 04:25:00;;;;;;;28.73;13.00;;;;;;;-3.80;91.55;96564.22;5024995;28;20076;-59
2021/03/19 04:27:30;;;;;;;28.63;13.13;;;;;;;-3.85;91.86;96562.38;4988192;28;20482;-59
2021/03/19 04:29:57;;;;;;;25.95;12.52;;;;;;;-3.90;91.89;96556.25;5006508;28;20076;-62
2021/03/19 04:32:24;;;;;;;24.50;11.38;;;;;;;-3.93;92.05;96559.47;5020588;28;20831;-60
2021/03/19 04:34:49;;;;;;;29.98;13.60;;;;;;;-3.74;92.16;96559.66;5012956;28;20181;-61
2021/03/19 04:37:15;;;;;;;27.20;13.65;;;;;;;-3.77;91.73;96557.53;5019225;28;20046;-62
2021/03/19 04:39:44;;;;;;;25.17;12.10;;;;;;;-3.81;92.17;96557.28;5021183;28;20103;-61
2021/03/19 04:42:11;;;;;;;28.73;12.77;;;;;;;-3.91;91.73;96557.31;5018993;28;20314;-60
2021/03/19 04:44:41;;;;;;;26.35;11.98;;;;;;;-3.93;92.24;96556.81;5013317;28;20076;-61
2021/03/19 04:47:06;;;;;;;29.42;13.05;;;;;;;-3.92;92.49;96564.56;5007384;28;20507;-58
2021/03/19 04:49:33;;;;;;;30.05;14.55;;;;;;;-3.96;92.84;96560.03;5011836;28;20075;-60
2021/03/19 04:52:00;;;;;;;29.67;13.30;;;;;;;-4.11;93.02;96567.06;5023418;28;20034;-60
2021/03/19 04:54:25;;;;;;;32.28;14.10;;;;;;;-4.23;93.66;96569.28;5001145;28;20049;-59
2021/03/19 04:56:51;;;;;;;27.65;13.68;;;;;;;-4.32;93.30;96562.88;5015324;28;20045;-60
2021/03/19 04:59:17;;;;;;;29.52;12.60;;;;;;;-4.36;93.58;96564.50;5017452;28;20034;-62
2021/03/19 05:02:00;;;;;;;24.05;12.18;;;;;;;-4.40;93.17;96558.13;5025405;28;20045;-62
2021/03/19 05:04:27;;;;;;;27.05;12.98;;;;;;;-4.44;93.19;96569.34;5020590;28;20076;-60
2021/03/19 05:06:59;;;;;;;26.73;13.07;;;;;;;-4.48;93.17;96567.50;5012892;28;20438;-60
2021/03/19 05:09:25;;;;;;;27.80;12.70;;;;;;;-4.57;93.29;96561.94;5004454;28;20041;-60
2021/03/19 05:11:51;;;;;;;23.58;11.35;;;;;;;-4.54;93.28;96565.91;5024614;28;20046;-58
2021/03/19 05:14:18;;;;;;;26.60;12.07;;;;;;;-4.39;93.28;96565.88;5004423;28;20108;-60
2021/03/19 05:16:44;;;;;;;24.13;12.20;;;;;;;-4.34;93.13;96565.84;5035318;28;20052;-61
2021/03/19 05:19:10;;;;;;;23.65;11.65;;;;;;;-4.35;93.14;96568.81;5030955;28;20034;-60
2021/03/19 05:21:35;;;;;;;25.30;11.55;;;;;;;-4.31;93.18;96564.50;5020483;28;20046;-59
2021/03/19 05:24:01;;;;;;;21.25;9.70;;;;;;;-4.35;93.14;96572.25;5017664;28;20080;-62
2021/03/19 05:26:28;;;;;;;25.30;12.15;;;;;;;-4.37;92.46;96571.75;5009040;28;20435;-59
2021/03/19 05:28:53;;;;;;;25.73;12.13;;;;;;;-4.33;92.78;96572.78;5009905;28;20087;-61
2021/03/19 05:31:18;;;;;;;27.13;12.55;;;;;;;-4.12;92.23;96573.50;5023356;28;20123;-62
2021/03/19 05:33:50;;;;;;;22.02;10.75;;;;;;;-3.96;91.63;96581.44;4997090;28;20395;-59
2021/03/19 05:36:20;;;;;;;25.45;11.73;;;;;;;-3.88;90.76;96591.56;5013079;28;20037;-61
2021/03/19 05:38:46;;;;;;;;;;;;;;;-3.87;90.51;96590.47;5025272;28;20140;-60
2021/03/19 05:41:13;;;;;;;22.85;10.93;;;;;;;-3.68;90.54;96593.31;4996199;28;20032;-61
2021/03/19 05:43:39;;;;;;;25.27;11.60;;;;;;;-3.25;90.29;96588.19;5027182;28;20049;-61
2021/03/19 05:46:15;;;;;;;19.13;10.73;;;;;;;-2.73;88.25;96589.34;5012901;28;20396;-61
2021/03/19 05:48:57;;;;;;;26.30;11.05;;;;;;;-2.19;86.49;96591.97;5019605;28;20040;-59
2021/03/19 05:51:31;;;;;;;16.50;9.68;;;;;;;-1.60;83.82;96592.56;5014367;28;20061;-59
2021/03/19 05:54:04;;;;;;;16.52;9.32;;;;;;;-1.15;80.93;96598.34;5012552;28;20502;-61
2021/03/19 05:56:31;;;;;;;20.13;9.15;;;;;;;-0.53;79.69;96591.91;5013327;28;20054;-62
2021/03/19 05:58:57;;;;;;;17.52;8.70;;;;;;;0.11;73.13;96597.38;5021962;28;20033;-61
2021/03/19 06:01:23;;;;;;;14.38;8.65;;;;;;;0.63;71.06;96597.06;5033736;28;20372;-62
2021/03/19 06:03:49;;;;;;;15.95;8.15;;;;;;;1.14;68.97;96590.47;5025624;28;20061;-60
2021/03/19 06:06:16;;;;;;;17.23;8.00;;;;;;;1.00;67.45;96601.31;5027907;28;20057;-60
2021/03/19 06:08:48;;;;;;;14.25;7.22;;;;;;;1.04;68.23;96604.19;5028235;28;20128;-60
2021/03/19 06:11:23;;;;;;;12.13;6.53;;;;;;;-0.20;70.80;96604.19;5009874;28;20436;-60
2021/03/19 06:13:55;;;;;;;13.95;7.43;;;;;;;-0.70;72.82;96603.22;5005831;28;20399;-62
2021/03/19 06:16:31;;;;;;;14.88;8.02;;;;;;;-0.15;73.14;96610.56;5013419;28;20038;-61
2021/03/19 06:18:59;;;;;;;15.75;7.22;;;;;;;1.05;71.60;96608.50;5029710;28;20140;-62
2021/03/19 06:21:31;;;;;;;11.75;6.30;;;;;;;1.62;65.57;96602.44;5025713;28;20045;-61
2021/03/19 06:24:02;;;;;;;11.77;6.47;;;;;;;0.52;67.68;96616.16;5017699;28;20041;-62
2021/03/19 06:26:35;;;;;;;11.65;7.22;;;;;;;0.88;68.35;96622.63;5001554;28;20046;-61
2021/03/19 06:29:12;;;;;;;11.27;6.82;;;;;;;1.19;68.64;96621.88;5008754;28;20760;-62
2021/03/19 06:31:39;;;;;;;11.80;6.30;;;;;;;1.71;67.34;96624.88;5012941;28;20112;-62
2021/03/19 06:34:14;;;;;;;11.43;7.13;;;;;;;2.88;63.19;96625.31;5020932;28;20478;-61
2021/03/19 06:36:58;;;;;;;10.50;6.03;;;;;;;4.30;58.02;96631.63;5034863;28;20568;-63
2021/03/19 06:39:29;;;;;;;10.18;5.53;;;;;;;4.18;58.66;96632.34;5019664;28;20053;-63
2021/03/19 06:42:10;;;;;;;14.40;5.47;;;;;;;4.10;57.90;96633.16;5025641;28;20075;-64
2021/03/19 06:44:36;;;;;;;10.52;5.20;;;;;;;3.98;57.58;96633.88;5016054;28;20077;-62
2021/03/19 06:47:04;;;;;;;11.75;6.40;;;;;;;2.66;62.23;96634.38;5011799;28;20438;-62
2021/03/19 06:49:48;;;;;;;7.75;5.15;;;;;;;3.22;60.47;96639.94;5028825;28;20080;-62
2021/03/19 06:52:21;;;;;;;10.23;6.03;;;;;;;1.94;62.24;96630.22;5003346;28;20041;-64
2021/03/19 06:54:52;;;;;;;17.67;9.05;;;;;;;2.73;60.78;96633.91;5005382;28;20132;-62
2021/03/19 06:57:20;;;;;;;17.48;7.82;;;;;;;1.46;65.50;96642.53;5009502;28;20054;-63
2021/03/19 06:59:55;;;;;;;13.63;7.13;;;;;;;2.22;64.24;96645.09;5015708;28;20549;-61
2021/03/19 07:02:20;;;;;;;18.40;13.02;;;;;;;1.17;67.20;96646.50;5011040;28;20475;-61
2021/03/19 07:05:04;;;;;;;15.88;12.15;;;;;;;1.65;66.04;96640.41;5013593;28;20060;-61
2021/03/19 07:07:45;;;;;;;13.27;7.97;;;;;;;1.92;65.07;96647.53;5021995;28;20057;-61
2021/03/19 07:10:30;;;;;;;14.00;7.15;;;;;;;1.63;67.25;96647.25;5012625;28;20048;-61
2021/03/19 07:13:29;;;;;;;10.40;5.93;;;;;;;1.41;65.85;96653.47;5011647;28;20176;-61
2021/03/19 07:16:10;;;;;;;12.25;6.85;;;;;;;1.16;66.87;96650.28;5016548;28;20041;-61
2021/03/19 07:18:54;;;;;;;11.13;6.35;;;;;;;2.73;63.36;96637.41;5006793;28;20716;-60
2021/03/19 07:21:43;;;;;;;11.13;6.50;;;;;;;1.89;64.17;96642.78;5001461;28;20084;-60
2021/03/19 07:24:34;;;;;;;12.77;6.95;;;;;;;1.13;67.76;96653.59;5010640;28;20037;-61
2021/03/19 07:27:02;;;;;;;16.27;6.50;;;;;;;1.48;66.76;96651.94;5009922;28;20128;-61
2021/03/19 07:29:34;;;;;;;10.48;5.85;;;;;;;1.60;67.50;96653.25;5003930;28;20045;-59
2021/03/19 07:32:18;;;;;;;10.70;5.75;;;;;;;2.75;62.65;96647.91;5012048;28;20439;-62
2021/03/19 07:35:32;;;;;;;10.52;6.10;;;;;;;3.10;61.52;96643.31;5005181;28;20199;-61
2021/03/19 07:38:28;;;;;;;16.80;5.88;;;;;;;3.94;56.96;96643.78;4986353;28;20060;-61
2021/03/19 07:41:03;;;;;;;15.48;5.65;;;;;;;5.61;55.29;96646.91;5017862;28;20056;-63
2021/03/19 07:43:41;;;;;;;12.57;7.05;;;;;;;3.80;59.27;96652.09;4989351;28;20045;-62
2021/03/19 07:46:43;;;;;;;10.60;5.80;;;;;;;4.16;57.40;96648.13;5008292;28;20569;-59
2021/03/19 07:49:18;;;;;;;9.38;5.43;;;;;;;4.36;56.23;96652.03;5007943;28;20433;-60
2021/03/19 07:52:05;;;;;;;12.13;5.43;;;;;;;2.63;61.79;96651.25;5013309;28;20040;-61
2021/03/19 07:54:54;;;;;;;13.35;5.35;;;;;;;5.61;54.31;96649.63;5009081;28;20188;-60
2021/03/19 07:57:24;;;;;;;;;;;;;;;3.48;57.62;96645.31;5009343;28;20041;-61
2021/03/19 07:59:58;;;;;;;11.23;5.57;;;;;;;4.19;57.52;96660.22;5012477;28;19921;-60
2021/03/19 08:02:46;;;;;;;12.50;5.05;;;;;;;4.68;55.64;96655.19;5023099;28;20513;-63
2021/03/19 08:05:22;;;;;;;20.38;10.77;;;;;;;4.74;54.85;96661.22;5004791;28;20034;-62
2021/03/19 08:07:57;;;;;;;10.88;6.78;;;;;;;3.85;58.22;96659.25;5008970;28;20498;-63
2021/03/19 08:10:49;;;;;;;22.02;11.43;;;;;;;3.98;59.44;96658.25;5006773;28;20085;-60
2021/03/19 08:13:35;;;;;;;11.30;5.93;;;;;;;3.29;59.31;96661.13;5007804;28;20041;-61
2021/03/19 08:16:10;;;;;;;10.52;6.25;;;;;;;2.67;61.37;96657.59;5022061;28;20461;-63
2021/03/19 08:18:59;;;;;;;11.10;6.22;;;;;;;4.15;57.53;96659.31;5016491;28;20927;-62
2021/03/19 08:21:47;;;;;;;9.15;5.68;;;;;;;4.06;57.63;96653.13;4997196;28;20052;-63
2021/03/19 08:24:46;;;;;;;23.02;5.97;;;;;;;5.82;52.52;96656.94;5014637;28;20069;-61
2021/03/19 08:27:36;;;;;;;7.68;4.90;;;;;;;6.27;48.97;96650.69;5016732;28;20099;-62
2021/03/19 08:30:30;;;;;;;11.90;5.25;;;;;;;5.68;50.18;96657.25;5010503;28;20510;-63
2021/03/19 08:33:06;;;;;;;9.70;4.70;;;;;;;6.84;49.39;96662.53;5009325;28;20077;-61
2021/03/19 08:35:47;;;;;;;15.93;5.85;;;;;;;8.59;42.63;96660.22;5007581;28;20049;-61
2021/03/19 08:38:12;;;;;;;9.60;5.50;;;;;;;6.02;46.29;96669.69;5010495;28;20049;-60
2021/03/19 08:40:47;;;;;;;9.20;5.03;;;;;;;3.66;54.70;96667.75;5018955;28;20042;-62
2021/03/19 08:43:38;;;;;;;10.52;5.50;;;;;;;3.76;56.61;96672.03;5017360;28;20047;-60
2021/03/19 08:46:25;;;;;;;9.13;4.85;;;;;;;6.30;48.94;96663.59;5013088;28;20685;-62
2021/03/19 08:49:05;;;;;;;11.82;4.97;;;;;;;4.98;51.69;96676.84;5017941;28;20120;-62
2021/03/19 08:51:30;;;;;;;9.65;5.40;;;;;;;5.12;48.85;96671.94;5009754;28;20050;-61
2021/03/19 08:54:21;;;;;;;11.43;5.25;;;;;;;4.68;50.83;96674.19;5022439;28;20128;-61
2021/03/19 08:56:47;;;;;;;13.45;4.82;;;;;;;7.19;45.47;96664.75;5013495;28;20066;-60
2021/03/19 08:59:47;;;;;;;12.25;5.47;;;;;;;7.12;45.31;96668.03;4984973;28;20418;-61
2021/03/19 09:02:32;;;;;;;9.52;5.00;;;;;;;6.82;46.37;96662.88;5023965;28;20072;-63
2021/03/19 09:05:00;;;;;;;11.30;5.18;;;;;;;9.05;41.99;96662.41;5013272;28;20093;-63
2021/03/19 09:07:29;;;;;;;8.10;4.05;;;;;;;9.42;40.44;96662.78;5027940;28;20050;-61
2021/03/19 09:09:57;;;;;;;12.93;4.93;;;;;;;8.09;42.35;96653.53;5023971;28;20576;-61
2021/03/19 09:12:27;;;;;;;8.35;4.85;;;;;;;8.78;41.98;96654.00;5017669;28;20802;-61
2021/03/19 09:15:16;;;;;;;9.18;5.15;;;;;;;4.60;50.67;96664.16;5014021;28;20442;-62
2021/03/19 09:17:47;;;;;;;11.50;5.20;;;;;;;5.80;49.40;96664.59;5004014;28;20107;-61
2021/03/19 09:20:40;;;;;;;9.32;5.03;;;;;;;4.86;52.14;96669.44;5001539;28;20065;-61
2021/03/19 09:23:11;;;;;;;10.65;4.72;;;;;;;5.19;49.74;96670.66;5015405;28;20348;-61
2021/03/19 09:25:39;;;;;;;8.75;4.82;;;;;;;6.91;45.98;96670.91;5012040;28;20050;-62
2021/03/19 09:28:11;;;;;;;9.38;4.97;;;;;;;7.82;44.22;96656.72;5006406;28;20057;-61
2021/03/19 09:30:41;;;;;;;10.18;5.32;;;;;;;8.90;42.14;96662.09;5013792;28;20050;-60
2021/03/19 09:33:31;;;;;;;8.85;4.63;;;;;;;8.88;40.33;96660.88;5013173;28;20402;-62
2021/03/19 09:35:56;;;;;;;10.43;4.72;;;;;;;9.08;40.81;96662.47;5022130;28;20180;-60
2021/03/19 09:38:22;;;;;;;8.73;5.22;;;;;;;6.11;46.14;96653.28;5017836;28;20144;-61
2021/03/19 09:40:57;;;;;;;8.90;4.93;;;;;;;6.16;47.05;96663.94;5021462;28;20088;-60
2021/03/19 09:43:50;;;;;;;9.65;4.88;;;;;;;5.03;49.79;96676.66;5006774;28;20134;-63
2021/03/19 09:46:30;;;;;;;7.55;5.20;;;;;;;5.82;48.37;96663.16;4992937;28;20085;-62
2021/03/19 09:49:07;;;;;;;10.98;5.18;;;;;;;6.66;44.40;96670.16;4969382;28;20064;-62
2021/03/19 09:51:41;;;;;;;15.50;6.07;;;;;;;4.34;46.92;96664.31;5005501;28;20053;-62
2021/03/19 09:54:28;;;;;;;10.18;5.72;;;;;;;5.72;44.74;96660.88;5013790;28;20137;-63
2021/03/19 09:57:00;;;;;;;10.23;5.75;;;;;;;8.48;39.59;96659.16;5016887;28;20045;-60
2021/03/19 09:59:28;;;;;;;10.32;5.60;;;;;;;10.34;35.73;96659.41;5008601;28;20555;-63
2021/03/19 10:01:54;;;;;;;15.10;6.30;;;;;;;10.64;35.18;96661.44;5015312;28;20049;-62
2021/03/19 10:04:37;;;;;;;9.82;5.85;;;;;;;11.43;34.72;96646.88;5003188;28;20037;-62
2021/03/19 10:07:24;;;;;;;8.77;5.00;;;;;;;12.13;31.95;96654.69;4999607;28;20105;-60
2021/03/19 10:09:54;;;;;;;8.32;4.90;;;;;;;8.82;35.72;96656.81;4985339;28;20053;-62
2021/03/19 10:12:30;;;;;;;9.15;4.85;;;;;;;9.34;36.39;96652.84;5001375;28;20046;-61
2021/03/19 10:15:10;;;;;;;8.32;5.07;;;;;;;10.18;34.62;96651.28;5015765;28;20049;-62
2021/03/19 10:17:36;;;;;;;7.75;4.55;;;;;;;10.74;33.48;96647.13;5014825;28;20164;-62
2021/03/19 10:20:11;;;;;;;9.43;5.22;;;;;;;10.40;34.94;96641.50;5008512;28;20084;-61
2021/03/19 10:22:41;;;;;;;8.80;4.55;;;;;;;9.73;36.55;96652.84;5011092;28;20128;-64
2021/03/19 10:25:18;;;;;;;;;;;;;;;10.01;35.14;96636.16;4996250;28;20489;-63
2021/03/19 10:27:50;;;;;;;6.97;4.20;;;;;;;10.16;34.64;96642.66;4988558;28;20036;-62
2021/03/19 10:30:23;;;;;;;11.02;5.20;;;;;;;9.55;36.68;96641.56;5006388;28;20060;-61
2021/03/19 10:32:50;;;;;;;8.57;4.93;;;;;;;10.21;34.57;96645.09;5022783;28;20367;-61
2021/03/19 10:35:23;;;;;;;10.35;5.72;;;;;;;10.46;34.67;96639.25;5016177;28;20107;-62
2021/03/19 10:37:51;;;;;;;10.48;4.70;;;;;;;10.76;35.16;96641.28;5014124;28;20148;-62
2021/03/19 10:40:35;;;;;;;9.02;4.50;;;;;;;10.57;35.62;96634.75;5016953;28;20044;-62
2021/03/19 10:43:10;;;;;;;12.63;5.63;;;;;;;10.79;36.06;96644.06;5021967;28;20446;-62
2021/03/19 10:45:54;;;;;;;8.98;5.40;;;;;;;9.89;37.94;96641.81;5011655;28;20045;-61
2021/03/19 10:48:29;;;;;;;10.25;5.07;;;;;;;9.14;39.73;96652.06;5001908;28;20042;-63
2021/03/19 10:50:58;;;;;;;9.40;5.22;;;;;;;8.38;40.46;96644.88;5014097;28;20108;-63
2021/03/19 10:53:44;;;;;;;10.07;6.18;;;;;;;8.68;41.46;96643.63;5004432;28;20038;-62
2021/03/19 10:56:11;;;;;;;12.80;5.85;;;;;;;8.97;40.74;96653.25;4999280;28;20125;-63
2021/03/19 10:58:36;;;;;;;11.85;5.55;;;;;;;9.10;39.80;96651.97;5004149;28;20402;-63
2021/03/19 11:01:51;;;;;;;13.35;5.28;;;;;;;8.99;40.68;96654.47;5002967;28;20041;-62
2021/03/19 11:04:37;;;;;;;14.48;6.40;;;;;;;8.94;42.06;96660.22;4978204;28;20383;-63
2021/03/19 11:07:16;;;;;;;13.35;5.78;;;;;;;7.21;44.55;96651.56;5007293;28;20029;-61
2021/03/19 11:10:09;;;;;;;15.07;6.97;;;;;;;9.03;42.70;96651.81;5002020;28;20096;-61
2021/03/19 11:12:42;;;;;;;10.27;5.97;;;;;;;8.56;41.57;96653.50;5012683;28;20091;-60
2021/03/19 11:15:28;;;;;;;11.63;5.57;;;;;;;8.35;41.14;96652.97;5009547;28;20045;-61
2021/03/19 11:18:12;;;;;;;9.70;5.20;;;;;;;7.59;42.87;96656.50;5014745;28;20038;-64
2021/03/19 11:20:38;;;;;;;11.25;5.57;;;;;;;7.60;42.67;96654.59;5027814;28;20643;-61
2021/03/19 11:23:17;;;;;;;11.25;5.45;;;;;;;7.96;41.30;96650.88;5020022;28;20045;-60
2021/03/19 11:25:46;;;;;;;12.25;5.88;;;;;;;8.61;39.76;96655.19;5033370;28;20042;-63
2021/03/19 11:28:29;;;;;;;8.55;4.85;;;;;;;9.31;39.43;96653.56;5015229;28;20428;-62
2021/03/19 11:31:10;;;;;;;12.80;5.22;;;;;;;8.37;40.44;96651.50;5004462;28;20042;-62
2021/03/19 11:34:04;;;;;;;10.98;5.70;;;;;;;8.87;39.77;96649.13;5013781;28;20135;-63
2021/03/19 11:37:00;;;;;;;10.27;5.85;;;;;;;9.37;38.74;96644.72;5020367;28;20482;-62
2021/03/19 11:39:55;;;;;;;9.25;5.30;;;;;;;9.57;38.56;96653.72;5016604;28;20144;-63
2021/03/19 11:42:22;;;;;;;12.02;5.72;;;;;;;9.81;37.86;96653.75;5017192;28;20087;-63
2021/03/19 11:44:52;;;;;;;9.63;5.10;;;;;;;9.83;37.34;96655.00;5021701;28;20108;-63
2021/03/19 11:47:18;;;;;;;;;;;;;;;9.65;37.06;96651.91;4999390;28;20513;-60
2021/03/19 11:49:44;;;;;;;11.98;6.10;;;;;;;8.26;40.16;96658.59;5021575;28;19912;-63
2021/03/19 11:52:16;;;;;;;30.00;16.92;;;;;;;7.58;40.56;96649.50;5016053;28;20161;-61
2021/03/19 11:54:42;;;;;;;15.60;8.68;;;;;;;7.56;41.06;96651.78;5020746;28;20068;-61
2021/03/19 11:57:09;;;;;;;11.55;5.50;;;;;;;7.50;41.35;96655.09;5015743;28;20045;-62
2021/03/19 11:59:35;;;;;;;10.10;5.82;;;;;;;8.09;39.43;96656.25;5020759;28;20045;-62